createdAt,value
2018-09-30T00:02:25.485Z,13.10
2018-09-30T00:04:53.699Z,12.77
2018-09-30T00:07:21.879Z,21.50
2018-09-30T00:09:49.990Z,18.60
2018-09-30T00:12:18.168Z,12.70
2018-09-30T00:14:46.393Z,7.60
2018-09-30T00:17:14.510Z,9.07
2018-09-30T00:19:42.714Z,17.70
2018-09-30T00:22:10.816Z,14.40
2018-09-30T00:24:44.541Z,7.20
2018-09-30T00:27:19.730Z,11.47
2018-09-30T00:29:48.102Z,11.90
2018-09-30T00:32:16.288Z,12.47
2018-09-30T00:34:44.438Z,10.47
2018-09-30T00:37:12.624Z,11.97
2018-09-30T00:39:40.772Z,18.63
2018-09-30T00:42:08.943Z,7.87
2018-09-30T00:44:37.070Z,9.73
2018-09-30T00:47:05.236Z,7.73
2018-09-30T00:49:33.496Z,7.80
2018-09-30T00:52:01.658Z,17.27
2018-09-30T00:54:29.827Z,19.90
2018-09-30T00:56:58.070Z,14.77
2018-09-30T00:59:26.250Z,16.20
2018-09-30T01:01:54.799Z,18.73
2018-09-30T01:04:23.014Z,14.00
2018-09-30T01:06:51.187Z,13.47
2018-09-30T01:09:19.336Z,14.67
2018-09-30T01:11:47.503Z,8.33
2018-09-30T01:14:15.728Z,16.20
2018-09-30T01:16:43.844Z,16.20
2018-09-30T01:19:12.036Z,6.70
2018-09-30T01:21:40.165Z,9.87
2018-09-30T01:24:10.370Z,10.20
2018-09-30T01:26:38.519Z,8.70
2018-09-30T01:29:06.746Z,9.60
2018-09-30T01:31:35.621Z,8.70
2018-09-30T01:34:03.769Z,14.37
2018-09-30T01:36:31.973Z,5.70
2018-09-30T01:39:00.122Z,8.33
2018-09-30T01:41:29.120Z,10.67
2018-09-30T01:43:57.217Z,9.10
2018-09-30T01:46:25.360Z,8.07
2018-09-30T01:48:53.560Z,8.37
2018-09-30T01:51:21.731Z,10.23
2018-09-30T01:53:49.831Z,8.50
2018-09-30T01:56:17.972Z,6.03
2018-09-30T01:58:46.089Z,11.60
2018-09-30T02:01:14.261Z,7.63
2018-09-30T02:03:42.401Z,7.30
2018-09-30T02:06:10.598Z,7.63
2018-09-30T02:08:38.714Z,9.40
2018-09-30T02:11:07.004Z,9.53
2018-09-30T02:13:35.204Z,6.23
2018-09-30T02:16:04.525Z,8.73
2018-09-30T02:18:32.696Z,4.57
2018-09-30T02:21:00.824Z,12.60
2018-09-30T02:23:28.993Z,6.90
2018-09-30T02:25:57.126Z,8.23
2018-09-30T02:28:25.292Z,8.70
2018-09-30T02:30:53.432Z,6.33
2018-09-30T02:33:21.579Z,6.40
2018-09-30T02:35:49.746Z,5.80
2018-09-30T02:38:17.890Z,11.70
2018-09-30T02:40:46.094Z,8.53
2018-09-30T02:43:15.739Z,8.80
2018-09-30T02:45:43.864Z,16.53
2018-09-30T02:48:12.151Z,12.47
2018-09-30T02:50:40.324Z,14.63
2018-09-30T02:53:09.215Z,11.63
2018-09-30T02:55:38.823Z,7.67
2018-09-30T02:58:07.746Z,8.87
2018-09-30T03:00:35.952Z,12.67
2018-09-30T03:03:04.418Z,11.37
2018-09-30T03:05:32.646Z,10.77
2018-09-30T03:08:06.445Z,8.73
2018-09-30T03:10:34.695Z,8.83
2018-09-30T03:13:02.862Z,10.40
2018-09-30T03:15:31.050Z,12.13
2018-09-30T03:17:59.219Z,7.70
2018-09-30T03:20:27.365Z,9.03
2018-09-30T03:22:55.515Z,8.73
2018-09-30T03:25:23.659Z,4.77
2018-09-30T03:27:51.834Z,7.20
2018-09-30T03:30:19.968Z,9.70
2018-09-30T03:32:48.163Z,6.43
2018-09-30T03:35:16.378Z,7.67
2018-09-30T03:37:44.512Z,6.97
2018-09-30T03:40:12.655Z,11.53
2018-09-30T03:42:40.815Z,12.73
2018-09-30T03:45:09.310Z,12.03
2018-09-30T03:47:37.529Z,11.37
2018-09-30T03:50:05.745Z,9.50
2018-09-30T03:52:33.881Z,12.73
2018-09-30T03:55:02.011Z,11.10
2018-09-30T03:57:30.227Z,12.00
2018-09-30T03:59:58.341Z,12.90
2018-09-30T04:02:26.565Z,8.33
2018-09-30T04:04:54.753Z,8.00
2018-09-30T04:07:22.923Z,10.10
2018-09-30T04:09:51.092Z,9.83
2018-09-30T04:12:19.227Z,13.27
2018-09-30T04:14:48.245Z,13.87
2018-09-30T04:17:18.770Z,7.27
2018-09-30T04:19:46.879Z,10.50
2018-09-30T04:22:16.467Z,15.13
2018-09-30T04:24:45.913Z,8.30
2018-09-30T04:27:14.091Z,9.93
2018-09-30T04:29:43.033Z,9.83
2018-09-30T04:32:11.175Z,9.67
2018-09-30T04:34:39.366Z,10.10
2018-09-30T04:37:07.588Z,7.80
2018-09-30T04:39:36.415Z,13.17
2018-09-30T04:42:04.607Z,8.23
2018-09-30T04:44:32.877Z,12.13
2018-09-30T04:47:01.079Z,7.27
2018-09-30T04:49:29.243Z,9.37
2018-09-30T04:51:57.393Z,7.77
2018-09-30T04:54:25.586Z,10.43
2018-09-30T04:56:53.842Z,7.93
2018-09-30T04:59:22.031Z,6.10
2018-09-30T05:01:50.215Z,12.13
2018-09-30T05:04:18.397Z,10.20
2018-09-30T05:06:46.553Z,6.60
2018-09-30T05:09:14.795Z,5.87
2018-09-30T05:11:42.944Z,6.37
2018-09-30T05:14:11.192Z,9.47
2018-09-30T05:16:39.884Z,8.60
2018-09-30T05:19:08.059Z,7.67
2018-09-30T05:21:36.743Z,7.13
2018-09-30T05:24:04.969Z,6.67
2018-09-30T05:26:33.145Z,8.20
2018-09-30T05:29:01.377Z,9.27
2018-09-30T05:31:29.551Z,5.80
2018-09-30T05:33:57.699Z,6.17
2018-09-30T05:36:26.710Z,8.73
2018-09-30T05:38:54.907Z,6.00
2018-09-30T05:41:23.098Z,9.40
2018-09-30T05:43:51.279Z,7.43
2018-09-30T05:46:19.496Z,4.37
2018-09-30T05:48:47.681Z,7.83
2018-09-30T05:51:22.635Z,6.60
2018-09-30T05:53:50.831Z,8.57
2018-09-30T05:56:19.033Z,6.70
2018-09-30T05:58:47.230Z,5.40
2018-09-30T06:01:15.446Z,7.97
2018-09-30T06:03:43.673Z,9.70
2018-09-30T06:06:11.963Z,9.57
2018-09-30T06:08:40.285Z,6.87
2018-09-30T06:11:08.477Z,4.43
2018-09-30T06:13:36.642Z,9.30
2018-09-30T06:16:04.863Z,12.83
2018-09-30T06:18:32.985Z,10.00
2018-09-30T06:21:01.160Z,6.50
2018-09-30T06:23:29.365Z,6.47
2018-09-30T06:25:57.519Z,8.33
2018-09-30T06:28:25.733Z,10.67
2018-09-30T06:30:53.934Z,8.00
2018-09-30T06:33:22.120Z,8.73
2018-09-30T06:35:57.215Z,5.60
2018-09-30T06:38:25.385Z,7.63
2018-09-30T06:40:53.624Z,10.17
2018-09-30T06:43:21.845Z,9.80
2018-09-30T06:45:50.063Z,8.37
2018-09-30T06:48:18.227Z,7.47
2018-09-30T06:50:46.539Z,7.20
2018-09-30T06:53:14.691Z,6.20
2018-09-30T06:55:42.915Z,5.57
2018-09-30T06:58:11.138Z,7.57
2018-09-30T07:00:39.267Z,8.50
2018-09-30T07:03:07.412Z,8.93
2018-09-30T07:05:35.546Z,18.40
2018-09-30T07:08:04.563Z,5.90
2018-09-30T07:10:33.124Z,6.37
2018-09-30T07:13:01.272Z,8.43
2018-09-30T07:15:29.431Z,3.37
2018-09-30T07:17:57.564Z,5.77
2018-09-30T07:20:25.771Z,5.73
2018-09-30T07:22:53.992Z,6.03
2018-09-30T07:25:22.179Z,11.40
2018-09-30T07:27:50.388Z,5.70
2018-09-30T07:30:18.584Z,10.93
2018-09-30T07:32:46.808Z,8.40
2018-09-30T07:35:15.038Z,12.57
2018-09-30T07:37:43.225Z,5.50
2018-09-30T07:40:11.453Z,10.10
2018-09-30T07:42:40.565Z,11.53
2018-09-30T07:45:08.823Z,4.80
2018-09-30T07:47:37.025Z,5.63
2018-09-30T07:50:05.208Z,5.43
2018-09-30T07:52:33.427Z,9.33
2018-09-30T07:55:01.597Z,5.90
2018-09-30T07:57:29.776Z,11.33
2018-09-30T07:59:57.943Z,6.43
2018-09-30T08:02:26.123Z,6.20
2018-09-30T08:04:54.313Z,8.47
2018-09-30T08:07:22.566Z,2.73
2018-09-30T08:09:50.686Z,7.30
2018-09-30T08:12:18.847Z,5.20
2018-09-30T08:14:47.111Z,6.10
2018-09-30T08:17:15.361Z,5.10
2018-09-30T08:19:43.535Z,5.13
2018-09-30T08:22:11.663Z,10.10
2018-09-30T08:24:39.863Z,10.53
2018-09-30T08:27:08.069Z,5.17
2018-09-30T08:29:36.295Z,3.67
2018-09-30T08:32:04.474Z,5.00
2018-09-30T08:34:33.771Z,11.60
2018-09-30T08:37:01.898Z,6.00
2018-09-30T08:39:30.129Z,5.87
2018-09-30T08:41:58.295Z,10.17
2018-09-30T08:44:26.459Z,2.67
2018-09-30T08:46:54.609Z,6.73
2018-09-30T08:49:22.807Z,8.83
2018-09-30T08:51:51.265Z,4.80
2018-09-30T08:54:19.505Z,8.17
2018-09-30T08:56:47.679Z,4.23
2018-09-30T08:59:15.839Z,5.43
2018-09-30T09:01:44.167Z,5.87
2018-09-30T09:04:12.481Z,8.10
2018-09-30T09:06:40.761Z,4.20
2018-09-30T09:09:10.634Z,3.83
2018-09-30T09:11:39.499Z,6.53
2018-09-30T09:14:07.935Z,3.43
2018-09-30T09:16:36.115Z,8.20
2018-09-30T09:19:04.261Z,13.20
2018-09-30T09:21:32.491Z,7.17
2018-09-30T09:24:00.698Z,9.37
2018-09-30T09:26:28.879Z,7.50
2018-09-30T09:28:57.159Z,5.60
2018-09-30T09:31:25.345Z,4.60
2018-09-30T09:33:53.543Z,4.63
2018-09-30T09:36:21.778Z,3.10
2018-09-30T09:38:49.915Z,4.73
2018-09-30T09:41:18.125Z,5.63
2018-09-30T09:43:46.299Z,2.57
2018-09-30T09:46:14.526Z,3.73
2018-09-30T09:48:42.743Z,5.83
2018-09-30T09:51:11.083Z,9.17
2018-09-30T09:53:39.277Z,4.73
2018-09-30T09:56:07.463Z,6.30
2018-09-30T09:58:35.635Z,5.30
2018-09-30T10:01:06.583Z,6.83
2018-09-30T10:03:35.632Z,2.40
2018-09-30T10:06:04.426Z,4.83
2018-09-30T10:08:32.601Z,4.00
2018-09-30T10:11:00.816Z,3.03
2018-09-30T10:13:28.996Z,4.43
2018-09-30T10:15:57.123Z,5.20
2018-09-30T10:18:25.295Z,12.17
2018-09-30T10:20:53.436Z,7.23
2018-09-30T10:23:21.659Z,3.40
2018-09-30T10:25:49.806Z,8.43
2018-09-30T10:28:17.965Z,8.57
2018-09-30T10:30:46.133Z,6.87
2018-09-30T10:33:14.300Z,5.10
2018-09-30T10:35:42.508Z,4.43
2018-09-30T10:40:45.149Z,5.57
2018-09-30T10:43:13.387Z,6.80
2018-09-30T10:45:41.545Z,4.23
2018-09-30T10:48:09.691Z,4.23
2018-09-30T10:50:37.861Z,4.47
2018-09-30T10:53:12.834Z,3.20
2018-09-30T10:55:41.037Z,5.03
2018-09-30T10:58:09.316Z,3.67
2018-09-30T11:00:37.420Z,5.77
2018-09-30T11:03:05.675Z,4.20
2018-09-30T11:05:33.868Z,5.60
2018-09-30T11:08:02.067Z,4.90
2018-09-30T11:10:30.271Z,5.13
2018-09-30T11:12:58.534Z,8.30
2018-09-30T11:15:26.696Z,1.90
2018-09-30T11:17:54.971Z,4.47
2018-09-30T11:20:23.193Z,3.60
2018-09-30T11:22:51.440Z,6.30
2018-09-30T11:25:19.612Z,2.80
2018-09-30T11:27:47.768Z,4.10
2018-09-30T11:30:15.960Z,3.93
2018-09-30T11:32:44.129Z,4.40
2018-09-30T11:35:15.202Z,4.43
2018-09-30T11:37:44.448Z,4.37
2018-09-30T11:40:12.592Z,5.37
2018-09-30T11:42:40.923Z,5.10
2018-09-30T11:45:09.204Z,7.87
2018-09-30T11:47:37.438Z,7.03
2018-09-30T11:50:05.637Z,4.10
2018-09-30T11:52:33.922Z,4.30
2018-09-30T11:55:02.065Z,5.50
2018-09-30T11:57:30.329Z,5.83
2018-09-30T11:59:58.680Z,7.33
2018-09-30T12:02:26.858Z,5.17
2018-09-30T12:04:55.087Z,9.13
2018-09-30T12:07:23.477Z,4.53
2018-09-30T12:09:51.705Z,3.47
2018-09-30T12:12:19.853Z,3.80
2018-09-30T12:14:48.027Z,4.80
2018-09-30T12:17:16.175Z,6.20
2018-09-30T12:19:44.865Z,5.53
2018-09-30T12:22:13.064Z,4.13
2018-09-30T12:24:41.238Z,8.67
2018-09-30T12:27:09.698Z,9.03
2018-09-30T12:29:37.948Z,4.87
2018-09-30T12:32:06.626Z,3.47
2018-09-30T12:34:35.986Z,3.43
2018-09-30T12:37:04.166Z,6.77
2018-09-30T12:39:32.388Z,6.63
2018-09-30T12:42:00.592Z,7.13
2018-09-30T12:44:29.056Z,9.33
2018-09-30T12:46:57.310Z,4.07
2018-09-30T12:49:25.478Z,5.27
2018-09-30T12:51:53.704Z,8.23
2018-09-30T12:54:21.872Z,7.00
2018-09-30T12:56:50.004Z,2.43
2018-09-30T12:59:18.183Z,8.77
2018-09-30T13:01:46.405Z,10.30
2018-09-30T13:04:15.299Z,9.47
2018-09-30T13:06:43.470Z,7.97
2018-09-30T13:09:11.676Z,6.43
2018-09-30T13:11:39.848Z,5.40
2018-09-30T13:14:08.349Z,9.00
2018-09-30T13:16:36.563Z,2.77
2018-09-30T13:19:04.731Z,4.90
2018-09-30T13:21:32.901Z,9.77
2018-09-30T13:24:01.103Z,4.80
2018-09-30T13:26:29.270Z,4.87
2018-09-30T13:28:57.492Z,12.83
2018-09-30T13:31:25.676Z,3.77
2018-09-30T13:33:53.842Z,5.00
2018-09-30T13:36:22.007Z,4.10
2018-09-30T13:38:50.227Z,3.17
2018-09-30T13:41:18.473Z,3.47
2018-09-30T13:43:46.644Z,6.93
2018-09-30T13:46:14.978Z,4.80
2018-09-30T13:48:43.151Z,6.90
2018-09-30T13:51:11.848Z,5.23
2018-09-30T13:53:40.027Z,6.00
2018-09-30T13:56:08.262Z,9.33
2018-09-30T13:58:37.422Z,2.00
2018-09-30T14:01:05.571Z,5.50
2018-09-30T14:03:33.820Z,5.20
2018-09-30T14:06:01.954Z,6.80
2018-09-30T14:08:30.120Z,2.87
2018-09-30T14:10:58.277Z,8.00
2018-09-30T14:13:26.434Z,7.13
2018-09-30T14:15:54.628Z,3.70
2018-09-30T14:18:22.749Z,5.50
2018-09-30T14:20:50.934Z,1.20
2018-09-30T14:23:19.110Z,2.30
2018-09-30T14:25:47.888Z,4.70
2018-09-30T14:28:16.028Z,4.80
2018-09-30T14:30:44.192Z,7.57
2018-09-30T14:33:12.400Z,5.43
2018-09-30T14:35:40.545Z,3.03
2018-09-30T14:38:08.729Z,6.03
2018-09-30T14:40:37.038Z,3.33
2018-09-30T14:43:05.243Z,5.13
2018-09-30T14:45:33.378Z,6.97
2018-09-30T14:48:01.533Z,4.93
2018-09-30T14:50:29.720Z,7.33
2018-09-30T14:52:57.869Z,7.50
2018-09-30T14:55:26.011Z,13.67
2018-09-30T14:57:54.212Z,23.67
2018-09-30T15:00:22.425Z,18.87
2018-09-30T15:02:50.572Z,22.63
2018-09-30T15:05:19.825Z,7.43
2018-09-30T15:07:48.158Z,9.70
2018-09-30T15:10:16.338Z,4.70
2018-09-30T15:12:44.511Z,9.03
2018-09-30T15:15:12.689Z,8.33
2018-09-30T15:17:40.846Z,9.67
2018-09-30T15:20:09.090Z,5.10
2018-09-30T15:22:37.211Z,12.63
2018-09-30T15:25:05.358Z,6.43
2018-09-30T15:27:33.702Z,3.70
2018-09-30T15:30:01.935Z,7.10
2018-09-30T15:32:30.114Z,11.53
2018-09-30T15:34:58.335Z,4.07
2018-09-30T15:37:26.586Z,7.60
2018-09-30T15:39:54.776Z,11.47
2018-09-30T15:42:23.015Z,14.63
2018-09-30T15:44:51.212Z,14.37
2018-09-30T15:47:19.368Z,12.50
2018-09-30T15:49:47.502Z,14.63
2018-09-30T15:52:15.646Z,5.40
2018-09-30T15:54:43.857Z,19.17
2018-09-30T15:57:12.089Z,10.60
2018-09-30T15:59:41.106Z,8.20
2018-09-30T16:02:09.362Z,12.23
2018-09-30T16:04:37.583Z,21.93
2018-09-30T16:07:06.051Z,27.60
2018-09-30T16:09:34.203Z,28.03
2018-09-30T16:12:02.377Z,29.27
2018-09-30T16:14:30.547Z,30.87
2018-09-30T16:16:58.708Z,22.87
2018-09-30T16:19:26.896Z,23.10
2018-09-30T16:21:55.084Z,15.80
2018-09-30T16:24:23.283Z,23.50
2018-09-30T16:26:51.416Z,31.47
2018-09-30T16:29:19.601Z,22.30
2018-09-30T16:31:47.788Z,13.20
2018-09-30T16:34:15.904Z,14.90
2018-09-30T16:36:44.174Z,14.87
2018-09-30T16:39:12.389Z,15.77
2018-09-30T16:41:40.583Z,18.80
2018-09-30T16:44:08.812Z,20.70
2018-09-30T16:46:37.116Z,19.40
2018-09-30T16:49:05.342Z,18.97
2018-09-30T16:51:33.567Z,15.17
2018-09-30T16:54:01.729Z,19.93
2018-09-30T16:56:29.979Z,16.73
2018-09-30T16:58:58.176Z,18.50
2018-09-30T17:01:26.354Z,19.30
2018-09-30T17:03:54.544Z,25.43
2018-09-30T17:06:22.773Z,15.60
2018-09-30T17:08:50.937Z,17.30
2018-09-30T17:11:19.120Z,35.27
2018-09-30T17:13:47.646Z,24.47
2018-09-30T17:16:15.877Z,15.97
2018-09-30T17:18:44.671Z,16.40
2018-09-30T17:21:12.828Z,15.43
2018-09-30T17:23:41.034Z,10.73
2018-09-30T17:26:09.447Z,14.40
2018-09-30T17:28:37.825Z,15.87
2018-09-30T17:31:06.306Z,21.00
2018-09-30T17:33:34.452Z,14.27
2018-09-30T17:36:02.932Z,15.67
2018-09-30T17:38:31.149Z,16.33
2018-09-30T17:40:59.615Z,23.20
2018-09-30T17:43:28.002Z,16.83
2018-09-30T17:45:56.208Z,20.40
2018-09-30T17:48:24.376Z,14.53
2018-09-30T17:50:52.586Z,24.83
2018-09-30T17:53:20.779Z,20.23
2018-09-30T17:55:49.226Z,19.10
2018-09-30T17:58:17.454Z,24.43
2018-09-30T18:00:45.622Z,39.10
2018-09-30T18:03:13.821Z,48.30
2018-09-30T18:05:42.214Z,149.67
2018-09-30T18:08:10.487Z,32.10
2018-09-30T18:10:38.782Z,32.63
2018-09-30T18:13:07.931Z,81.17
2018-09-30T18:15:36.172Z,29.33
2018-09-30T18:18:04.390Z,26.53
2018-09-30T18:20:32.703Z,28.10
2018-09-30T18:23:01.496Z,33.20
2018-09-30T18:25:29.843Z,35.37
2018-09-30T18:27:58.081Z,28.47
2018-09-30T18:30:26.309Z,32.30
2018-09-30T18:32:55.002Z,38.53
2018-09-30T18:35:23.269Z,32.73
2018-09-30T18:37:51.690Z,36.93
2018-09-30T18:40:19.989Z,36.20
2018-09-30T18:42:48.135Z,35.33
2018-09-30T18:45:16.314Z,40.70
2018-09-30T18:47:44.523Z,36.33
2018-09-30T18:50:12.744Z,43.90
2018-09-30T18:52:41.056Z,47.50
2018-09-30T18:55:10.325Z,32.03
2018-09-30T18:57:38.615Z,42.83
2018-09-30T19:00:07.093Z,45.53
2018-09-30T19:02:35.848Z,42.20
2018-09-30T19:05:04.152Z,40.27
2018-09-30T19:07:32.437Z,45.63
2018-09-30T19:10:00.805Z,46.90
2018-09-30T19:12:29.040Z,46.97
2018-09-30T19:14:57.268Z,58.23
2018-09-30T19:17:25.473Z,59.97
2018-09-30T19:19:53.710Z,66.93
2018-09-30T19:22:22.094Z,38.40
2018-09-30T19:24:50.416Z,33.93
2018-09-30T19:27:18.712Z,31.43
2018-09-30T19:29:47.025Z,40.77
2018-09-30T19:32:15.334Z,51.50
2018-09-30T19:34:43.739Z,44.67
2018-09-30T19:37:12.768Z,38.33
2018-09-30T19:39:41.031Z,39.47
2018-09-30T19:42:09.189Z,50.13
2018-09-30T19:44:37.444Z,53.97
2018-09-30T19:47:05.790Z,49.20
2018-09-30T19:49:34.092Z,38.17
2018-09-30T19:52:02.435Z,57.10
2018-09-30T19:54:30.769Z,49.17
2018-09-30T19:56:59.046Z,47.47
2018-09-30T19:59:27.293Z,57.13
2018-09-30T20:01:55.468Z,46.80
2018-09-30T20:04:23.657Z,55.60
2018-09-30T20:06:52.016Z,54.17
2018-09-30T20:09:20.330Z,50.00
2018-09-30T20:11:49.130Z,45.03
2018-09-30T20:14:17.333Z,43.50
2018-09-30T20:16:47.334Z,39.77
2018-09-30T20:19:15.530Z,51.17
2018-09-30T20:21:44.429Z,44.83
2018-09-30T20:24:13.272Z,51.73
2018-09-30T20:26:42.154Z,42.70
2018-09-30T20:29:10.478Z,41.00
2018-09-30T20:31:38.670Z,49.33
2018-09-30T20:34:06.923Z,48.97
2018-09-30T20:36:35.359Z,43.00
2018-09-30T20:39:04.292Z,39.27
2018-09-30T20:41:32.598Z,46.80
2018-09-30T20:44:00.778Z,43.67
2018-09-30T20:46:29.572Z,41.20
2018-09-30T20:48:57.914Z,51.27
2018-09-30T20:51:26.105Z,45.20
2018-09-30T20:53:54.314Z,47.67
2018-09-30T20:56:23.056Z,41.33
2018-09-30T20:58:51.340Z,43.03
2018-09-30T21:01:20.017Z,41.20
2018-09-30T21:03:48.224Z,37.60
2018-09-30T21:06:22.487Z,37.17
2018-09-30T21:08:50.692Z,36.77
2018-09-30T21:11:19.041Z,32.70
2018-09-30T21:13:47.256Z,42.57
2018-09-30T21:16:15.459Z,33.67
2018-09-30T21:18:44.354Z,32.83
2018-09-30T21:21:12.483Z,35.97
2018-09-30T21:23:40.686Z,32.03
2018-09-30T21:26:08.855Z,26.47
2018-09-30T21:28:37.094Z,39.80
2018-09-30T21:31:05.480Z,28.63
2018-09-30T21:33:34.071Z,32.90
2018-09-30T21:36:02.271Z,32.07
2018-09-30T21:38:31.038Z,30.50
2018-09-30T21:40:59.211Z,32.80
2018-09-30T21:43:27.369Z,28.13
2018-09-30T21:45:55.585Z,34.10
2018-09-30T21:48:23.786Z,35.40
2018-09-30T21:50:52.026Z,28.93
2018-09-30T21:53:20.278Z,27.67
2018-09-30T21:55:48.588Z,30.93
2018-09-30T21:58:17.077Z,42.63
2018-09-30T22:00:50.933Z,29.53
2018-09-30T22:03:19.133Z,30.20
2018-09-30T22:05:47.945Z,28.20
2018-09-30T22:08:16.137Z,33.53
2018-09-30T22:10:44.279Z,27.67
2018-09-30T22:13:12.891Z,25.37
2018-09-30T22:15:41.511Z,31.00
2018-09-30T22:18:09.878Z,29.43
2018-09-30T22:20:38.165Z,35.93
2018-09-30T22:23:06.557Z,37.17
2018-09-30T22:25:35.528Z,28.93
2018-09-30T22:28:03.664Z,28.57
2018-09-30T22:30:32.421Z,30.73
2018-09-30T22:33:00.595Z,26.47
2018-09-30T22:35:28.775Z,37.03
2018-09-30T22:37:56.883Z,23.77
2018-09-30T22:40:25.303Z,25.03
2018-09-30T22:42:53.453Z,30.13
2018-09-30T22:45:23.359Z,28.80
2018-09-30T22:47:51.560Z,28.97
2018-09-30T22:50:19.792Z,27.07
2018-09-30T22:52:47.909Z,29.17
2018-09-30T22:55:16.061Z,27.10
2018-09-30T22:57:44.245Z,33.53
2018-09-30T23:00:12.448Z,42.03
2018-09-30T23:02:40.676Z,25.73
2018-09-30T23:05:09.374Z,28.50
2018-09-30T23:07:38.497Z,32.83
2018-09-30T23:10:10.790Z,32.60
2018-09-30T23:12:38.946Z,36.20
2018-09-30T23:15:07.088Z,30.33
2018-09-30T23:17:35.305Z,34.73
2018-09-30T23:20:03.586Z,33.73
2018-09-30T23:22:31.679Z,29.67
2018-09-30T23:24:59.853Z,31.40
2018-09-30T23:27:28.029Z,30.20
2018-09-30T23:29:56.234Z,31.83
2018-09-30T23:32:24.347Z,30.30
2018-09-30T23:34:52.515Z,35.90
2018-09-30T23:37:20.641Z,28.60
2018-09-30T23:39:48.873Z,21.50
2018-09-30T23:42:17.015Z,31.30
2018-09-30T23:44:45.142Z,27.40
2018-09-30T23:47:13.279Z,30.33
2018-09-30T23:49:41.422Z,29.00
2018-09-30T23:52:09.617Z,25.47
2018-09-30T23:54:37.775Z,26.47
2018-09-30T23:57:05.984Z,24.10
2018-09-30T23:59:34.154Z,28.47
